Aeroporto :
LOGIN :

Iscrizione | Disclaimer

   EN    FR    IT 

 










Sommario :    VFR   VFR Marginale   IFR   IFR Intensivo   IFR Molto Intensivo
Visibilità : 
Base nubi : 
>= 8 km
>= 3000ft
5 / 8 km
1000 / 3000 ft
1500m / 5 km
500 / 1000 ft
800 / 1500m
200 / 500 ft
< 800m
< 200 ft
Simboli :   Temporali  Nebbia  Neve Forte  Precipitazioni Forti  Vento > 20 kt
SIGMETs :   Varie  Temporali  Ghiacco  Turbolenza  Onda orograficha  Ceneri Vulcaniche






- Altitudine del aeroporto : 755 ft
- Codice IATA : DRS


EDDC - Dresden Klotzsche

ULTIMO METAR :
  • 090750Z 31005KT 240V340 CAVOK 15/02 Q1022 NOSIG

METARs OBSOLETI :
  • 090720Z 27003KT 200V350 CAVOK 14/00 Q1022 NOSIG
  • 090650Z 21005KT CAVOK 12/M01 Q1022 NOSIG
  • 090620Z 21005KT CAVOK 11/M01 Q1022 NOSIG
  • 090550Z 20005KT CAVOK 09/M02 Q1022 NOSIG
  • 090520Z 19003KT 130V230 CAVOK 08/M02 Q1021 NOSIG

TAF TAF EDDC
Valido dal 09 a 06 ore il 10 a 06 ore UTC


090500Z 0906/1006 21006KT CAVOK
BECMG 0907/0910 30009KT
BECMG 0917/0920 VRB03KT



MetMap, La meteo Aeronautica in un colpo d'occhio ! - Copyright ORBIFLY Dicembre 2007 - Disclaimer

ORBIFLY MET'MAP TEAM :

Programmazione e sviluppo : Alexandra Zaïnal
Concezione : Baudouin d'Aumeries
Aiuto per la programmazione : Marc-Olivier Méhu
Supporto tecnico e logistico : Manuel Goepfert
Aiuto per la traduzione : Arnaldo La Scala

Contatto : metmap@orbifly.com




FONTI E CREDITI :

   NOAA